sensor_id;sensor_type;location;lat;lon;timestamp;pressure;altitude;pressure_sealevel;temperature;humidity
39435;BME280;30098;51.880;-0.518;2022-11-20T00:00:28;100052.66;;;15.33;45.35
39435;BME280;30098;51.880;-0.518;2022-11-20T00:02:54;100164.06;;;16.04;45.26
39435;BME280;30098;51.880;-0.518;2022-11-20T00:05:19;100161.34;;;16.04;45.18
39435;BME280;30098;51.880;-0.518;2022-11-20T00:07:45;100150.75;;;16.02;45.18
39435;BME280;30098;51.880;-0.518;2022-11-20T00:10:11;100154.28;;;16.03;45.49
39435;BME280;30098;51.880;-0.518;2022-11-20T00:12:36;100157.00;;;16.03;45.34
39435;BME280;30098;51.880;-0.518;2022-11-20T00:15:02;100152.38;;;16.03;45.18
39435;BME280;30098;51.880;-0.518;2022-11-20T00:17:27;100153.19;;;16.04;45.12
39435;BME280;30098;51.880;-0.518;2022-11-20T00:19:52;100151.56;;;16.03;45.51
39435;BME280;30098;51.880;-0.518;2022-11-20T00:22:18;100143.44;;;16.03;45.36
39435;BME280;30098;51.880;-0.518;2022-11-20T00:24:43;100133.66;;;16.02;45.65
39435;BME280;30098;51.880;-0.518;2022-11-20T00:27:08;100132.56;;;16.03;45.66
39435;BME280;30098;51.880;-0.518;2022-11-20T00:29:34;100128.22;;;16.02;45.37
39435;BME280;30098;51.880;-0.518;2022-11-20T00:31:59;100125.50;;;16.02;45.58
39435;BME280;30098;51.880;-0.518;2022-11-20T00:34:24;100121.69;;;16.03;45.62
39435;BME280;30098;51.880;-0.518;2022-11-20T00:36:50;100009.53;;;15.31;45.51
39435;BME280;30098;51.880;-0.518;2022-11-20T00:39:15;100117.34;;;16.02;45.19
39435;BME280;30098;51.880;-0.518;2022-11-20T00:41:40;100108.38;;;16.01;45.31
39435;BME280;30098;51.880;-0.518;2022-11-20T00:44:06;100114.63;;;16.02;45.36
39435;BME280;30098;51.880;-0.518;2022-11-20T00:46:31;100111.09;;;16.01;45.39
39435;BME280;30098;51.880;-0.518;2022-11-20T00:48:57;100112.72;;;16.02;45.36
39435;BME280;30098;51.880;-0.518;2022-11-20T00:51:23;100114.63;;;16.02;45.33
39435;BME280;30098;51.880;-0.518;2022-11-20T00:53:49;100050.56;;;15.63;45.44
39435;BME280;30098;51.880;-0.518;2022-11-20T00:56:16;100118.16;;;16.02;45.15
39435;BME280;30098;51.880;-0.518;2022-11-20T00:58:42;100108.38;;;16.01;45.28
39435;BME280;30098;51.880;-0.518;2022-11-20T01:01:12;100101.03;;;16.02;45.29
39435;BME280;30098;51.880;-0.518;2022-11-20T01:03:39;99992.94;;;15.33;45.44
39435;BME280;30098;51.880;-0.518;2022-11-20T01:06:06;100100.22;;;16.01;45.35
39435;BME280;30098;51.880;-0.518;2022-11-20T01:08:32;100094.00;;;16.01;45.68
39435;BME280;30098;51.880;-0.518;2022-11-20T01:10:59;100088.56;;;16.01;45.32
39435;BME280;30098;51.880;-0.518;2022-11-20T01:13:25;100083.91;;;16.01;45.36
39435;BME280;30098;51.880;-0.518;2022-11-20T01:18:30;100084.22;;;16.00;45.42
39435;BME280;30098;51.880;-0.518;2022-11-20T01:20:59;100083.13;;;16.01;45.33
39435;BME280;30098;51.880;-0.518;2022-11-20T01:23:25;100086.63;;;16.01;45.35
39435;BME280;30098;51.880;-0.518;2022-11-20T01:25:50;100079.63;;;16.00;45.33
39435;BME280;30098;51.880;-0.518;2022-11-20T01:28:15;100080.41;;;16.01;45.19
39435;BME280;30098;51.880;-0.518;2022-11-20T01:30:41;100074.19;;;16.00;45.83
39435;BME280;30098;51.880;-0.518;2022-11-20T01:33:06;100071.47;;;16.00;45.46
39435;BME280;30098;51.880;-0.518;2022-11-20T01:35:31;100069.53;;;16.01;45.20
39435;BME280;30098;51.880;-0.518;2022-11-20T01:37:57;100063.00;;;16.02;45.31
39435;BME280;30098;51.880;-0.518;2022-11-20T01:40:22;100061.38;;;16.01;45.29
39435;BME280;30098;51.880;-0.518;2022-11-20T01:42:47;100052.44;;;16.00;45.36
39435;BME280;30098;51.880;-0.518;2022-11-20T01:48:38;100030.72;;;16.00;45.36
39435;BME280;30098;51.880;-0.518;2022-11-20T01:51:07;100032.59;;;16.00;45.37
39435;BME280;30098;51.880;-0.518;2022-11-20T01:53:35;100026.38;;;15.99;45.56
39435;BME280;30098;51.880;-0.518;2022-11-20T01:56:01;100025.56;;;15.99;45.50
39435;BME280;30098;51.880;-0.518;2022-11-20T01:58:29;100020.94;;;15.99;45.50
39435;BME280;30098;51.880;-0.518;2022-11-20T02:00:55;100020.94;;;15.99;45.37
39435;BME280;30098;51.880;-0.518;2022-11-20T02:03:21;100017.41;;;15.99;45.33
39435;BME280;30098;51.880;-0.518;2022-11-20T02:05:51;100025.56;;;15.99;45.33
39435;BME280;30098;51.880;-0.518;2022-11-20T02:08:17;100019.00;;;16.00;45.56
39435;BME280;30098;51.880;-0.518;2022-11-20T02:10:43;100015.50;;;15.99;45.34
39435;BME280;30098;51.880;-0.518;2022-11-20T02:13:08;100020.94;;;15.99;45.44
39435;BME280;30098;51.880;-0.518;2022-11-20T02:15:53;100009.25;;;15.99;45.37
39435;BME280;30098;51.880;-0.518;2022-11-20T02:18:19;100007.63;;;15.98;45.20
39435;BME280;30098;51.880;-0.518;2022-11-20T02:20:45;100007.34;;;15.99;45.21
39435;BME280;30098;51.880;-0.518;2022-11-20T02:25:37;99998.69;;;15.97;45.40
39435;BME280;30098;51.880;-0.518;2022-11-20T02:28:03;100002.19;;;15.98;45.34
39435;BME280;30098;51.880;-0.518;2022-11-20T02:30:29;100002.19;;;15.98;45.35
39435;BME280;30098;51.880;-0.518;2022-11-20T02:32:54;99995.97;;;15.97;45.26
39435;BME280;30098;51.880;-0.518;2022-11-20T02:37:46;99974.25;;;15.97;45.23
39435;BME280;30098;51.880;-0.518;2022-11-20T02:40:13;99976.16;;;15.97;45.19
39435;BME280;30098;51.880;-0.518;2022-11-20T02:42:38;99975.84;;;15.98;45.32
39435;BME280;30098;51.880;-0.518;2022-11-20T02:45:04;99968.81;;;15.97;45.34
39435;BME280;30098;51.880;-0.518;2022-11-20T02:47:30;99966.88;;;15.98;45.35
39435;BME280;30098;51.880;-0.518;2022-11-20T02:49:56;99964.16;;;15.98;45.31
39435;BME280;30098;51.880;-0.518;2022-11-20T02:52:21;99960.66;;;15.97;45.22
39435;BME280;30098;51.880;-0.518;2022-11-20T02:54:46;99954.44;;;15.97;45.28
39435;BME280;30098;51.880;-0.518;2022-11-20T02:57:12;99957.16;;;15.97;45.31
39435;BME280;30098;51.880;-0.518;2022-11-20T02:59:37;99954.44;;;15.97;45.32
39435;BME280;30098;51.880;-0.518;2022-11-20T03:02:02;99947.06;;;15.97;45.22
39435;BME280;30098;51.880;-0.518;2022-11-20T03:04:28;99935.41;;;15.97;45.08
39435;BME280;30098;51.880;-0.518;2022-11-20T03:06:53;99930.75;;;15.97;45.42
39435;BME280;30098;51.880;-0.518;2022-11-20T03:09:18;99931.88;;;15.96;45.11
39435;BME280;30098;51.880;-0.518;2022-11-20T03:11:44;99918.28;;;15.96;45.15
39435;BME280;30098;51.880;-0.518;2022-11-20T03:14:09;99915.56;;;15.96;45.16
39435;BME280;30098;51.880;-0.518;2022-11-20T03:16:34;99918.28;;;15.96;45.33
39435;BME280;30098;51.880;-0.518;2022-11-20T03:19:00;99910.13;;;15.96;45.46
39435;BME280;30098;51.880;-0.518;2022-11-20T03:21:25;99907.41;;;15.96;45.36
39435;BME280;30098;51.880;-0.518;2022-11-20T03:23:52;99892.22;;;15.95;45.50
39435;BME280;30098;51.880;-0.518;2022-11-20T03:26:19;99893.84;;;15.96;45.26
39435;BME280;30098;51.880;-0.518;2022-11-20T03:28:49;99898.16;;;15.97;45.50
39435;BME280;30098;51.880;-0.518;2022-11-20T03:31:15;99884.88;;;15.96;45.53
39435;BME280;30098;51.880;-0.518;2022-11-20T03:33:41;99877.53;;;15.96;45.43
39435;BME280;30098;51.880;-0.518;2022-11-20T03:36:08;99882.16;;;15.96;45.33
39435;BME280;30098;51.880;-0.518;2022-11-20T03:38:33;99874.03;;;15.96;45.35
39435;BME280;30098;51.880;-0.518;2022-11-20T03:41:04;99874.81;;;15.96;45.54
39435;BME280;30098;51.880;-0.518;2022-11-20T03:43:30;99868.59;;;15.96;45.61
39435;BME280;30098;51.880;-0.518;2022-11-20T03:45:55;99860.44;;;15.96;45.47
39435;BME280;30098;51.880;-0.518;2022-11-20T03:48:21;99863.16;;;15.96;45.10
39435;BME280;30098;51.880;-0.518;2022-11-20T03:50:46;99855.00;;;15.96;45.25
39435;BME280;30098;51.880;-0.518;2022-11-20T03:53:14;99858.50;;;15.96;45.38
39435;BME280;30098;51.880;-0.518;2022-11-20T03:55:40;99848.75;;;15.95;45.22
39435;BME280;30098;51.880;-0.518;2022-11-20T03:58:05;99837.09;;;15.95;45.45
39435;BME280;30098;51.880;-0.518;2022-11-20T04:00:31;99841.41;;;15.96;45.36
39435;BME280;30098;51.880;-0.518;2022-11-20T04:02:59;99839.50;;;15.96;45.23
39435;BME280;30098;51.880;-0.518;2022-11-20T04:05:25;99833.28;;;15.96;45.23
39435;BME280;30098;51.880;-0.518;2022-11-20T04:07:50;99820.78;;;15.95;45.24
39435;BME280;30098;51.880;-0.518;2022-11-20T04:10:15;99824.28;;;15.95;45.37
39435;BME280;30098;51.880;-0.518;2022-11-20T04:12:41;99822.41;;;15.96;45.19
39435;BME280;30098;51.880;-0.518;2022-11-20T04:15:06;99818.88;;;15.95;45.17
39435;BME280;30098;51.880;-0.518;2022-11-20T04:17:32;99826.22;;;15.95;45.25
39435;BME280;30098;51.880;-0.518;2022-11-20T04:19:57;99822.69;;;15.94;45.54
39435;BME280;30098;51.880;-0.518;2022-11-20T04:22:22;99819.97;;;15.94;45.27
39435;BME280;30098;51.880;-0.518;2022-11-20T04:24:48;99818.06;;;15.95;45.51
39435;BME280;30098;51.880;-0.518;2022-11-20T04:27:13;99817.25;;;15.94;45.32
39435;BME280;30098;51.880;-0.518;2022-11-20T04:29:38;99819.69;;;15.96;45.22
39435;BME280;30098;51.880;-0.518;2022-11-20T04:32:04;99807.22;;;15.95;45.23
39435;BME280;30098;51.880;-0.518;2022-11-20T04:34:29;99806.38;;;15.94;45.44
39435;BME280;30098;51.880;-0.518;2022-11-20T04:36:54;99809.09;;;15.94;45.63
39435;BME280;30098;51.880;-0.518;2022-11-20T04:39:20;99803.66;;;15.94;45.32
39435;BME280;30098;51.880;-0.518;2022-11-20T04:41:45;99792.81;;;15.94;45.26
39435;BME280;30098;51.880;-0.518;2022-11-20T04:44:10;99792.00;;;15.94;45.32
39435;BME280;30098;51.880;-0.518;2022-11-20T04:46:37;99783.84;;;15.94;45.23
39435;BME280;30098;51.880;-0.518;2022-11-20T04:49:03;99773.78;;;15.94;45.34
39435;BME280;30098;51.880;-0.518;2022-11-20T04:51:28;99772.19;;;15.93;45.25
39435;BME280;30098;51.880;-0.518;2022-11-20T04:53:54;99772.19;;;15.93;45.43
39435;BME280;30098;51.880;-0.518;2022-11-20T04:56:19;99771.06;;;15.94;45.28
39435;BME280;30098;51.880;-0.518;2022-11-20T04:58:44;99768.34;;;15.94;45.32
39435;BME280;30098;51.880;-0.518;2022-11-20T05:01:13;99764.06;;;15.93;45.34
39435;BME280;30098;51.880;-0.518;2022-11-20T05:03:39;99759.41;;;15.94;45.51
39435;BME280;30098;51.880;-0.518;2022-11-20T05:06:05;99762.91;;;15.94;45.42
39435;BME280;30098;51.880;-0.518;2022-11-20T05:08:31;99757.78;;;15.93;45.45
39435;BME280;30098;51.880;-0.518;2022-11-20T05:11:00;99750.47;;;15.93;45.27
39435;BME280;30098;51.880;-0.518;2022-11-20T05:13:26;99748.53;;;15.94;45.25
39435;BME280;30098;51.880;-0.518;2022-11-20T05:15:51;99745.81;;;15.94;45.36
39435;BME280;30098;51.880;-0.518;2022-11-20T05:18:17;99739.59;;;15.93;45.22
39435;BME280;30098;51.880;-0.518;2022-11-20T05:20:42;99733.34;;;15.93;45.33
39435;BME280;30098;51.880;-0.518;2022-11-20T05:23:07;99728.72;;;15.93;45.33
39435;BME280;30098;51.880;-0.518;2022-11-20T05:25:33;99732.25;;;15.94;45.52
39435;BME280;30098;51.880;-0.518;2022-11-20T05:27:58;99725.19;;;15.93;45.55
39435;BME280;30098;51.880;-0.518;2022-11-20T05:30:23;99720.59;;;15.93;45.52
39435;BME280;30098;51.880;-0.518;2022-11-20T05:32:49;99728.72;;;15.93;45.39
39435;BME280;30098;51.880;-0.518;2022-11-20T05:35:14;99717.03;;;15.93;45.36
39435;BME280;30098;51.880;-0.518;2022-11-20T05:37:39;99719.75;;;15.93;45.19
39435;BME280;30098;51.880;-0.518;2022-11-20T05:40:05;99719.75;;;15.93;45.66
39435;BME280;30098;51.880;-0.518;2022-11-20T05:42:30;99711.63;;;15.93;45.35
39435;BME280;30098;51.880;-0.518;2022-11-20T05:44:56;99717.88;;;15.93;45.29
39435;BME280;30098;51.880;-0.518;2022-11-20T05:47:22;99721.69;;;15.92;45.45
39435;BME280;30098;51.880;-0.518;2022-11-20T05:49:47;99723.59;;;15.92;45.54
39435;BME280;30098;51.880;-0.518;2022-11-20T05:52:12;99735.28;;;15.92;45.55
39435;BME280;30098;51.880;-0.518;2022-11-20T05:54:38;99630.59;;;15.21;45.64
39435;BME280;30098;51.880;-0.518;2022-11-20T05:57:04;99741.50;;;15.93;45.37
39435;BME280;30098;51.880;-0.518;2022-11-20T05:59:29;99738.78;;;15.93;45.28
39435;BME280;30098;51.880;-0.518;2022-11-20T06:01:55;99735.28;;;15.92;45.42
39435;BME280;30098;51.880;-0.518;2022-11-20T06:04:20;99739.88;;;15.92;45.19
39435;BME280;30098;51.880;-0.518;2022-11-20T06:06:45;99738.78;;;15.93;45.56
39435;BME280;30098;51.880;-0.518;2022-11-20T06:09:10;99738.00;;;15.92;45.47
39435;BME280;30098;51.880;-0.518;2022-11-20T06:11:36;99726.31;;;15.92;45.47
39435;BME280;30098;51.880;-0.518;2022-11-20T06:14:01;99726.31;;;15.92;45.42
39435;BME280;30098;51.880;-0.518;2022-11-20T06:16:26;99729.03;;;15.92;45.37
39435;BME280;30098;51.880;-0.518;2022-11-20T06:18:52;99720.88;;;15.92;45.25
39435;BME280;30098;51.880;-0.518;2022-11-20T06:21:18;99717.38;;;15.91;45.38
39435;BME280;30098;51.880;-0.518;2022-11-20T06:23:44;99718.16;;;15.92;45.42
39435;BME280;30098;51.880;-0.518;2022-11-20T06:26:10;99715.44;;;15.92;45.50
39435;BME280;30098;51.880;-0.518;2022-11-20T06:28:36;99647.34;;;15.51;45.28
39435;BME280;30098;51.880;-0.518;2022-11-20T06:31:02;99709.22;;;15.91;45.66
39435;BME280;30098;51.880;-0.518;2022-11-20T06:33:28;99709.22;;;15.91;45.39
39435;BME280;30098;51.880;-0.518;2022-11-20T06:35:56;99603.16;;;15.23;45.50
39435;BME280;30098;51.880;-0.518;2022-11-20T06:38:21;99706.50;;;15.91;45.41
39435;BME280;30098;51.880;-0.518;2022-11-20T06:40:46;99697.53;;;15.91;45.46
39435;BME280;30098;51.880;-0.518;2022-11-20T06:43:12;99692.09;;;15.91;45.42
39435;BME280;30098;51.880;-0.518;2022-11-20T06:45:37;99689.38;;;15.91;45.39
39435;BME280;30098;51.880;-0.518;2022-11-20T06:48:03;99683.94;;;15.91;45.41
39435;BME280;30098;51.880;-0.518;2022-11-20T06:50:28;99683.94;;;15.91;45.52
39435;BME280;30098;51.880;-0.518;2022-11-20T06:52:54;99685.09;;;15.90;45.46
39435;BME280;30098;51.880;-0.518;2022-11-20T06:55:19;99696.75;;;15.90;45.32
39435;BME280;30098;51.880;-0.518;2022-11-20T06:57:45;99694.81;;;15.91;45.43
39435;BME280;30098;51.880;-0.518;2022-11-20T07:00:10;99699.44;;;15.90;45.39
39435;BME280;30098;51.880;-0.518;2022-11-20T07:02:36;99709.53;;;15.90;45.32
39435;BME280;30098;51.880;-0.518;2022-11-20T07:05:01;99702.16;;;15.90;45.40
39435;BME280;30098;51.880;-0.518;2022-11-20T07:07:27;99702.16;;;15.90;45.46
39435;BME280;30098;51.880;-0.518;2022-11-20T07:09:52;99687.78;;;15.90;45.50
39435;BME280;30098;51.880;-0.518;2022-11-20T07:12:17;99693.22;;;15.90;45.68
39435;BME280;30098;51.880;-0.518;2022-11-20T07:14:43;99696.75;;;15.90;45.49
39435;BME280;30098;51.880;-0.518;2022-11-20T07:17:08;99693.22;;;15.90;45.41
39435;BME280;30098;51.880;-0.518;2022-11-20T07:19:33;99701.38;;;15.90;45.46
39435;BME280;30098;51.880;-0.518;2022-11-20T07:21:59;99692.41;;;15.89;45.57
39435;BME280;30098;51.880;-0.518;2022-11-20T07:24:24;99690.50;;;15.90;45.28
39435;BME280;30098;51.880;-0.518;2022-11-20T07:26:49;99690.00;;;15.87;45.40
39435;BME280;30098;51.880;-0.518;2022-11-20T07:29:15;99705.19;;;15.88;45.27
39435;BME280;30098;51.880;-0.518;2022-11-20T07:31:41;99701.38;;;15.90;45.46
39435;BME280;30098;51.880;-0.518;2022-11-20T07:34:07;99695.13;;;15.89;45.33
39435;BME280;30098;51.880;-0.518;2022-11-20T07:36:32;99694.34;;;15.88;45.20
39435;BME280;30098;51.880;-0.518;2022-11-20T07:38:57;99692.72;;;15.87;45.51
39435;BME280;30098;51.880;-0.518;2022-11-20T07:41:23;99693.50;;;15.88;45.41
39435;BME280;30098;51.880;-0.518;2022-11-20T07:43:48;99701.66;;;15.88;45.61
39435;BME280;30098;51.880;-0.518;2022-11-20T07:46:13;99691.63;;;15.88;45.62
39435;BME280;30098;51.880;-0.518;2022-11-20T07:48:39;99698.16;;;15.87;45.34
39435;BME280;30098;51.880;-0.518;2022-11-20T07:51:04;99700.88;;;15.87;45.33
39435;BME280;30098;51.880;-0.518;2022-11-20T07:53:29;99706.31;;;15.87;45.47
39435;BME280;30098;51.880;-0.518;2022-11-20T07:55:55;99718.28;;;15.86;45.60
39435;BME280;30098;51.880;-0.518;2022-11-20T07:58:24;99727.22;;;15.87;45.35
39435;BME280;30098;51.880;-0.518;2022-11-20T08:00:49;99731.84;;;15.86;45.40
39435;BME280;30098;51.880;-0.518;2022-11-20T08:03:14;99725.63;;;15.86;45.56
39435;BME280;30098;51.880;-0.518;2022-11-20T08:05:40;99734.56;;;15.86;45.44
39435;BME280;30098;51.880;-0.518;2022-11-20T08:08:05;99742.72;;;15.86;45.59
39435;BME280;30098;51.880;-0.518;2022-11-20T08:10:32;99750.88;;;15.86;45.40
39435;BME280;30098;51.880;-0.518;2022-11-20T08:12:57;99744.66;;;15.86;45.50
39435;BME280;30098;51.880;-0.518;2022-11-20T08:15:41;99737.28;;;15.86;45.33
39435;BME280;30098;51.880;-0.518;2022-11-20T08:18:11;99749.25;;;15.85;45.42
39435;BME280;30098;51.880;-0.518;2022-11-20T08:20:36;99743.03;;;15.85;45.32
39435;BME280;30098;51.880;-0.518;2022-11-20T08:23:03;99747.38;;;15.86;45.30
39435;BME280;30098;51.880;-0.518;2022-11-20T08:25:30;99745.75;;;15.85;45.34
39435;BME280;30098;51.880;-0.518;2022-11-20T08:27:59;99746.53;;;15.85;45.52
39435;BME280;30098;51.880;-0.518;2022-11-20T08:30:24;99748.47;;;15.85;45.31
39435;BME280;30098;51.880;-0.518;2022-11-20T08:32:50;99748.47;;;15.85;45.14
39435;BME280;30098;51.880;-0.518;2022-11-20T08:35:15;99744.94;;;15.84;45.25
39435;BME280;30098;51.880;-0.518;2022-11-20T08:37:41;99748.47;;;15.85;45.37
39435;BME280;30098;51.880;-0.518;2022-11-20T08:40:09;99744.94;;;15.84;45.35
39435;BME280;30098;51.880;-0.518;2022-11-20T08:42:35;99743.31;;;15.83;45.39
39435;BME280;30098;51.880;-0.518;2022-11-20T08:45:00;99742.22;;;15.84;45.23
39435;BME280;30098;51.880;-0.518;2022-11-20T08:47:26;99759.63;;;15.83;45.45
39435;BME280;30098;51.880;-0.518;2022-11-20T08:49:51;99744.16;;;15.84;45.22
39435;BME280;30098;51.880;-0.518;2022-11-20T08:52:16;99752.28;;;15.84;45.48
39435;BME280;30098;51.880;-0.518;2022-11-20T08:54:41;99754.19;;;15.83;45.22
39435;BME280;30098;51.880;-0.518;2022-11-20T08:57:07;99748.75;;;15.83;45.21
39435;BME280;30098;51.880;-0.518;2022-11-20T08:59:32;99763.16;;;15.84;45.37
39435;BME280;30098;51.880;-0.518;2022-11-20T09:01:58;99747.13;;;15.82;45.45
39435;BME280;30098;51.880;-0.518;2022-11-20T09:04:23;99751.47;;;15.83;45.38
39435;BME280;30098;51.880;-0.518;2022-11-20T09:06:49;99754.19;;;15.83;45.29
39435;BME280;30098;51.880;-0.518;2022-11-20T09:09:16;99748.25;;;15.81;45.31
39435;BME280;30098;51.880;-0.518;2022-11-20T09:11:41;99752.53;;;15.82;45.42
39435;BME280;30098;51.880;-0.518;2022-11-20T09:14:07;99757.97;;;15.82;45.53
39435;BME280;30098;51.880;-0.518;2022-11-20T09:16:32;99753.69;;;15.81;45.35
39435;BME280;30098;51.880;-0.518;2022-11-20T09:18:57;99769.97;;;15.81;45.41
39435;BME280;30098;51.880;-0.518;2022-11-20T09:21:23;99777.00;;;15.82;45.37
39435;BME280;30098;51.880;-0.518;2022-11-20T09:23:49;99766.13;;;15.82;45.46
39435;BME280;30098;51.880;-0.518;2022-11-20T09:26:14;99765.34;;;15.82;45.32
39435;BME280;30098;51.880;-0.518;2022-11-20T09:28:40;99765.34;;;15.82;45.28
39435;BME280;30098;51.880;-0.518;2022-11-20T09:31:06;99756.41;;;15.81;45.10
39435;BME280;30098;51.880;-0.518;2022-11-20T09:33:31;99756.41;;;15.81;45.30
39435;BME280;30098;51.880;-0.518;2022-11-20T09:35:57;99757.50;;;15.80;45.21
39435;BME280;30098;51.880;-0.518;2022-11-20T09:38:22;99752.84;;;15.81;45.38
39435;BME280;30098;51.880;-0.518;2022-11-20T09:40:53;99754.78;;;15.80;45.40
39435;BME280;30098;51.880;-0.518;2022-11-20T09:49:23;99757.50;;;15.80;45.59
39435;BME280;30098;51.880;-0.518;2022-11-20T09:52:00;99762.94;;;15.80;45.31
39435;BME280;30098;51.880;-0.518;2022-11-20T09:54:30;99758.59;;;15.79;45.49
39435;BME280;30098;51.880;-0.518;2022-11-20T09:57:01;99755.88;;;15.79;45.35
39435;BME280;30098;51.880;-0.518;2022-11-20T10:00:02;99760.50;;;15.79;45.46
39435;BME280;30098;51.880;-0.518;2022-11-20T10:03:06;99755.88;;;15.79;45.56
39435;BME280;30098;51.880;-0.518;2022-11-20T10:05:06;99759.72;;;15.78;45.46
39435;BME280;30098;51.880;-0.518;2022-11-20T10:07:37;99741.50;;;15.79;45.41
39435;BME280;30098;51.880;-0.518;2022-11-20T10:10:13;99743.41;;;15.78;45.52
39435;BME280;30098;51.880;-0.518;2022-11-20T10:15:31;99741.78;;;15.77;45.42
39435;BME280;30098;51.880;-0.518;2022-11-20T10:20:49;99740.69;;;15.78;45.38
39435;BME280;30098;51.880;-0.518;2022-11-20T10:30:51;99742.63;;;15.78;45.39
39435;BME280;30098;51.880;-0.518;2022-11-20T10:33:23;99741.78;;;15.77;45.51
39435;BME280;30098;51.880;-0.518;2022-11-20T10:36:04;99742.63;;;15.78;45.42
39435;BME280;30098;51.880;-0.518;2022-11-20T10:38:33;99741.78;;;15.77;45.29
39435;BME280;30098;51.880;-0.518;2022-11-20T10:41:01;99741.00;;;15.77;45.41
39435;BME280;30098;51.880;-0.518;2022-11-20T10:43:46;99741.00;;;15.77;45.41
39435;BME280;30098;51.880;-0.518;2022-11-20T10:46:15;99744.50;;;15.77;45.39
39435;BME280;30098;51.880;-0.518;2022-11-20T10:48:43;99744.50;;;15.77;45.53
39435;BME280;30098;51.880;-0.518;2022-11-20T10:56:30;99628.19;;;15.06;45.47
39435;BME280;30098;51.880;-0.518;2022-11-20T10:59:04;99637.53;;;15.14;45.51
39435;BME280;30098;51.880;-0.518;2022-11-20T11:01:29;99728.53;;;15.76;45.43
39435;BME280;30098;51.880;-0.518;2022-11-20T11:03:55;99724.72;;;15.77;45.48
39435;BME280;30098;51.880;-0.518;2022-11-20T11:06:42;99728.53;;;15.76;45.29
39435;BME280;30098;51.880;-0.518;2022-11-20T11:09:10;99732.84;;;15.77;45.38
39435;BME280;30098;51.880;-0.518;2022-11-20T11:11:38;99737.00;;;15.74;45.58
39435;BME280;30098;51.880;-0.518;2022-11-20T11:14:07;99735.06;;;15.75;45.58
39435;BME280;30098;51.880;-0.518;2022-11-20T11:16:33;99733.97;;;15.76;45.51
39435;BME280;30098;51.880;-0.518;2022-11-20T11:19:20;99727.72;;;15.75;45.43
39435;BME280;30098;51.880;-0.518;2022-11-20T11:21:54;99727.72;;;15.75;45.70
39435;BME280;30098;51.880;-0.518;2022-11-20T11:24:21;99730.44;;;15.75;45.73
39435;BME280;30098;51.880;-0.518;2022-11-20T11:26:55;99726.91;;;15.75;45.69
39435;BME280;30098;51.880;-0.518;2022-11-20T11:29:21;99731.56;;;15.74;45.50
39435;BME280;30098;51.880;-0.518;2022-11-20T11:31:46;99737.00;;;15.74;45.53
39435;BME280;30098;51.880;-0.518;2022-11-20T11:34:15;99732.34;;;15.75;45.45
39435;BME280;30098;51.880;-0.518;2022-11-20T11:36:41;99737.78;;;15.75;45.56
39435;BME280;30098;51.880;-0.518;2022-11-20T11:39:14;99620.66;;;15.03;45.69
39435;BME280;30098;51.880;-0.518;2022-11-20T11:41:40;99725.31;;;15.73;45.66
39435;BME280;30098;51.880;-0.518;2022-11-20T11:44:16;99735.38;;;15.73;45.38
39435;BME280;30098;51.880;-0.518;2022-11-20T11:47:01;99732.66;;;15.73;45.33
39435;BME280;30098;51.880;-0.518;2022-11-20T11:49:27;99744.31;;;15.73;45.52
39435;BME280;30098;51.880;-0.518;2022-11-20T11:52:04;99721.41;;;15.66;45.46
39435;BME280;30098;51.880;-0.518;2022-11-20T11:56:55;99745.44;;;15.72;45.46
39435;BME280;30098;51.880;-0.518;2022-11-20T12:00:09;99738.09;;;15.73;45.53
39435;BME280;30098;51.880;-0.518;2022-11-20T12:02:52;99750.84;;;15.72;45.74
39435;BME280;30098;51.880;-0.518;2022-11-20T12:04:59;99643.84;;;15.09;45.59
39435;BME280;30098;51.880;-0.518;2022-11-20T12:09:56;99743.81;;;15.71;45.56
39435;BME280;30098;51.880;-0.518;2022-11-20T12:12:32;99734.88;;;15.71;45.59
39435;BME280;30098;51.880;-0.518;2022-11-20T12:15:01;99751.16;;;15.71;45.48
39435;BME280;30098;51.880;-0.518;2022-11-20T12:17:27;99745.75;;;15.71;45.38
39435;BME280;30098;51.880;-0.518;2022-11-20T12:19:52;99739.50;;;15.70;45.57
39435;BME280;30098;51.880;-0.518;2022-11-20T12:25:04;99746.84;;;15.70;45.56
39435;BME280;30098;51.880;-0.518;2022-11-20T12:27:48;99750.66;;;15.69;45.41
39435;BME280;30098;51.880;-0.518;2022-11-20T12:30:17;99754.19;;;15.69;45.75
39435;BME280;30098;51.880;-0.518;2022-11-20T12:38:24;99745.22;;;15.69;45.51
39435;BME280;30098;51.880;-0.518;2022-11-20T12:43:30;99756.09;;;15.69;45.69
39435;BME280;30098;51.880;-0.518;2022-11-20T12:59:32;99773.50;;;15.68;45.78
39435;BME280;30098;51.880;-0.518;2022-11-20T13:02:09;99772.69;;;15.67;45.77
39435;BME280;30098;51.880;-0.518;2022-11-20T13:04:49;99779.75;;;15.68;45.67
39435;BME280;30098;51.880;-0.518;2022-11-20T13:07:19;99772.69;;;15.67;45.57
39435;BME280;30098;51.880;-0.518;2022-11-20T13:09:48;99774.63;;;15.67;45.91
39435;BME280;30098;51.880;-0.518;2022-11-20T13:12:57;99769.19;;;15.67;45.53
39435;BME280;30098;51.880;-0.518;2022-11-20T13:17:38;99764.56;;;15.67;45.62
39435;BME280;30098;51.880;-0.518;2022-11-20T13:20:06;99764.03;;;15.65;45.72
39435;BME280;30098;51.880;-0.518;2022-11-20T13:22:44;99766.47;;;15.67;45.78
39435;BME280;30098;51.880;-0.518;2022-11-20T13:25:32;99751.28;;;15.66;45.60
39435;BME280;30098;51.880;-0.518;2022-11-20T13:27:57;99764.56;;;15.67;45.64
39435;BME280;30098;51.880;-0.518;2022-11-20T13:30:23;99769.19;;;15.67;45.77
39435;BME280;30098;51.880;-0.518;2022-11-20T13:33:02;99768.69;;;15.65;45.69
39435;BME280;30098;51.880;-0.518;2022-11-20T13:35:33;99762.16;;;15.66;45.70
39435;BME280;30098;51.880;-0.518;2022-11-20T13:38:17;99769.47;;;15.65;45.58
39435;BME280;30098;51.880;-0.518;2022-11-20T13:43:27;99753.19;;;15.65;45.63
39435;BME280;30098;51.880;-0.518;2022-11-20T13:46:03;99739.59;;;15.65;45.71
39435;BME280;30098;51.880;-0.518;2022-11-20T13:48:45;99717.88;;;15.65;45.52
39435;BME280;30098;51.880;-0.518;2022-11-20T13:51:24;99714.88;;;15.67;45.75
39435;BME280;30098;51.880;-0.518;2022-11-20T13:59:26;99714.38;;;15.65;45.49
39435;BME280;30098;51.880;-0.518;2022-11-20T14:01:51;99715.16;;;15.65;45.60
39435;BME280;30098;51.880;-0.518;2022-11-20T14:04:18;99715.97;;;15.66;45.53